sensor_id;sensor_type;location;lat;lon;timestamp;temperature;humidity
21298;DHT22;10808;48.010;11.326;2023-08-21T00:00:25;22.50;99.90
21298;DHT22;10808;48.010;11.326;2023-08-21T00:02:51;22.40;99.90
21298;DHT22;10808;48.010;11.326;2023-08-21T00:05:17;22.40;99.90
21298;DHT22;10808;48.010;11.326;2023-08-21T00:07:43;22.40;99.90
21298;DHT22;10808;48.010;11.326;2023-08-21T00:10:09;22.40;99.90
21298;DHT22;10808;48.010;11.326;2023-08-21T00:12:36;22.30;99.90
21298;DHT22;10808;48.010;11.326;2023-08-21T00:15:02;22.30;99.90
21298;DHT22;10808;48.010;11.326;2023-08-21T00:17:29;22.30;99.90
21298;DHT22;10808;48.010;11.326;2023-08-21T00:19:55;22.30;99.90
21298;DHT22;10808;48.010;11.326;2023-08-21T00:22:21;22.20;99.90
21298;DHT22;10808;48.010;11.326;2023-08-21T00:24:47;22.10;99.90
21298;DHT22;10808;48.010;11.326;2023-08-21T00:27:13;22.10;99.90
21298;DHT22;10808;48.010;11.326;2023-08-21T00:29:39;22.10;99.90
21298;DHT22;10808;48.010;11.326;2023-08-21T00:32:05;22.10;99.90
21298;DHT22;10808;48.010;11.326;2023-08-21T00:34:32;22.00;99.90
21298;DHT22;10808;48.010;11.326;2023-08-21T00:36:58;22.00;99.90
21298;DHT22;10808;48.010;11.326;2023-08-21T00:39:24;22.00;99.90
21298;DHT22;10808;48.010;11.326;2023-08-21T00:41:50;21.90;99.90
21298;DHT22;10808;48.010;11.326;2023-08-21T00:44:16;21.90;99.90
21298;DHT22;10808;48.010;11.326;2023-08-21T00:46:42;21.90;99.90
21298;DHT22;10808;48.010;11.326;2023-08-21T00:49:09;21.90;99.90
21298;DHT22;10808;48.010;11.326;2023-08-21T00:51:35;21.90;99.90
21298;DHT22;10808;48.010;11.326;2023-08-21T00:54:01;21.90;99.90
21298;DHT22;10808;48.010;11.326;2023-08-21T00:56:28;21.80;99.90
21298;DHT22;10808;48.010;11.326;2023-08-21T00:58:54;21.80;99.90
21298;DHT22;10808;48.010;11.326;2023-08-21T01:01:24;21.80;99.90
21298;DHT22;10808;48.010;11.326;2023-08-21T01:03:51;21.70;99.90
21298;DHT22;10808;48.010;11.326;2023-08-21T01:06:18;21.70;99.90
21298;DHT22;10808;48.010;11.326;2023-08-21T01:09:12;21.70;99.90
21298;DHT22;10808;48.010;11.326;2023-08-21T01:14:24;21.70;99.90
21298;DHT22;10808;48.010;11.326;2023-08-21T01:16:56;21.60;99.90
21298;DHT22;10808;48.010;11.326;2023-08-21T01:22:02;21.60;99.90
21298;DHT22;10808;48.010;11.326;2023-08-21T01:24:28;21.60;99.90
21298;DHT22;10808;48.010;11.326;2023-08-21T01:26:54;21.60;99.90
21298;DHT22;10808;48.010;11.326;2023-08-21T01:29:21;21.50;99.90
21298;DHT22;10808;48.010;11.326;2023-08-21T01:31:53;21.50;99.90
21298;DHT22;10808;48.010;11.326;2023-08-21T01:34:21;21.50;99.90
21298;DHT22;10808;48.010;11.326;2023-08-21T01:36:47;21.50;99.90
21298;DHT22;10808;48.010;11.326;2023-08-21T01:39:14;21.50;99.90
21298;DHT22;10808;48.010;11.326;2023-08-21T01:41:41;21.50;99.90
21298;DHT22;10808;48.010;11.326;2023-08-21T01:44:07;21.50;99.90
21298;DHT22;10808;48.010;11.326;2023-08-21T01:46:33;21.40;99.90
21298;DHT22;10808;48.010;11.326;2023-08-21T01:48:59;21.40;99.90
21298;DHT22;10808;48.010;11.326;2023-08-21T01:51:25;21.40;99.90
21298;DHT22;10808;48.010;11.326;2023-08-21T01:53:51;21.40;99.90
21298;DHT22;10808;48.010;11.326;2023-08-21T01:56:17;21.40;99.90
21298;DHT22;10808;48.010;11.326;2023-08-21T01:58:43;21.40;99.90
21298;DHT22;10808;48.010;11.326;2023-08-21T02:01:09;21.40;99.90
21298;DHT22;10808;48.010;11.326;2023-08-21T02:03:35;21.30;99.90
21298;DHT22;10808;48.010;11.326;2023-08-21T02:06:01;21.30;99.90
21298;DHT22;10808;48.010;11.326;2023-08-21T02:08:31;21.30;99.90
21298;DHT22;10808;48.010;11.326;2023-08-21T02:10:58;21.30;99.90
21298;DHT22;10808;48.010;11.326;2023-08-21T02:13:24;21.30;99.90
21298;DHT22;10808;48.010;11.326;2023-08-21T02:15:51;21.20;99.90
21298;DHT22;10808;48.010;11.326;2023-08-21T02:18:17;21.30;99.90
21298;DHT22;10808;48.010;11.326;2023-08-21T02:20:43;21.20;99.90
21298;DHT22;10808;48.010;11.326;2023-08-21T02:23:09;21.20;99.90
21298;DHT22;10808;48.010;11.326;2023-08-21T02:25:35;21.20;99.90
21298;DHT22;10808;48.010;11.326;2023-08-21T02:28:01;21.20;99.90
21298;DHT22;10808;48.010;11.326;2023-08-21T02:30:28;21.20;99.90
21298;DHT22;10808;48.010;11.326;2023-08-21T02:32:54;21.20;99.90
21298;DHT22;10808;48.010;11.326;2023-08-21T02:35:21;21.20;99.90
21298;DHT22;10808;48.010;11.326;2023-08-21T02:37:47;21.20;99.90
21298;DHT22;10808;48.010;11.326;2023-08-21T02:40:13;21.20;99.90
21298;DHT22;10808;48.010;11.326;2023-08-21T02:42:39;21.20;99.90
21298;DHT22;10808;48.010;11.326;2023-08-21T02:45:05;21.20;99.90
21298;DHT22;10808;48.010;11.326;2023-08-21T02:47:36;21.20;99.90
21298;DHT22;10808;48.010;11.326;2023-08-21T02:50:04;21.20;99.90
21298;DHT22;10808;48.010;11.326;2023-08-21T02:52:30;21.20;99.90
21298;DHT22;10808;48.010;11.326;2023-08-21T02:54:57;21.20;99.90
21298;DHT22;10808;48.010;11.326;2023-08-21T02:57:24;21.20;99.90
21298;DHT22;10808;48.010;11.326;2023-08-21T02:59:50;21.20;99.90
21298;DHT22;10808;48.010;11.326;2023-08-21T03:02:17;21.20;99.90
21298;DHT22;10808;48.010;11.326;2023-08-21T03:04:44;21.20;99.90
21298;DHT22;10808;48.010;11.326;2023-08-21T03:07:10;21.20;99.90
21298;DHT22;10808;48.010;11.326;2023-08-21T03:09:39;21.10;99.90
21298;DHT22;10808;48.010;11.326;2023-08-21T03:12:06;21.10;99.90
21298;DHT22;10808;48.010;11.326;2023-08-21T03:14:32;21.10;99.90
21298;DHT22;10808;48.010;11.326;2023-08-21T03:16:58;21.10;99.90
21298;DHT22;10808;48.010;11.326;2023-08-21T03:19:24;21.00;99.90
21298;DHT22;10808;48.010;11.326;2023-08-21T03:21:51;21.00;99.90
21298;DHT22;10808;48.010;11.326;2023-08-21T03:24:17;21.00;99.90
21298;DHT22;10808;48.010;11.326;2023-08-21T03:26:44;21.00;99.90
21298;DHT22;10808;48.010;11.326;2023-08-21T03:29:10;21.00;99.90
21298;DHT22;10808;48.010;11.326;2023-08-21T03:31:36;20.90;99.90
21298;DHT22;10808;48.010;11.326;2023-08-21T03:34:02;20.90;99.90
21298;DHT22;10808;48.010;11.326;2023-08-21T03:36:28;20.90;99.90
21298;DHT22;10808;48.010;11.326;2023-08-21T03:39:01;20.80;99.90
21298;DHT22;10808;48.010;11.326;2023-08-21T03:41:27;20.90;99.90
21298;DHT22;10808;48.010;11.326;2023-08-21T03:43:53;20.80;99.90
21298;DHT22;10808;48.010;11.326;2023-08-21T03:46:20;20.80;99.90
21298;DHT22;10808;48.010;11.326;2023-08-21T03:48:46;20.80;99.90
21298;DHT22;10808;48.010;11.326;2023-08-21T03:51:12;20.80;99.90
21298;DHT22;10808;48.010;11.326;2023-08-21T03:53:38;20.80;99.90
21298;DHT22;10808;48.010;11.326;2023-08-21T03:56:04;20.80;99.90
21298;DHT22;10808;48.010;11.326;2023-08-21T03:58:31;20.70;99.90
21298;DHT22;10808;48.010;11.326;2023-08-21T04:00:57;20.70;99.90
21298;DHT22;10808;48.010;11.326;2023-08-21T04:03:23;20.70;99.90
21298;DHT22;10808;48.010;11.326;2023-08-21T04:05:49;20.70;99.90
21298;DHT22;10808;48.010;11.326;2023-08-21T04:08:15;20.70;99.90
21298;DHT22;10808;48.010;11.326;2023-08-21T04:10:42;20.70;99.90
21298;DHT22;10808;48.010;11.326;2023-08-21T04:13:08;20.60;99.90
21298;DHT22;10808;48.010;11.326;2023-08-21T04:15:34;20.60;99.90
21298;DHT22;10808;48.010;11.326;2023-08-21T04:18:04;20.60;99.90
21298;DHT22;10808;48.010;11.326;2023-08-21T04:20:30;20.60;99.90
21298;DHT22;10808;48.010;11.326;2023-08-21T04:22:56;20.50;99.90
21298;DHT22;10808;48.010;11.326;2023-08-21T04:25:22;20.50;99.90
21298;DHT22;10808;48.010;11.326;2023-08-21T04:27:49;20.50;99.90
21298;DHT22;10808;48.010;11.326;2023-08-21T04:30:15;20.40;99.90
21298;DHT22;10808;48.010;11.326;2023-08-21T04:32:41;20.40;99.90
21298;DHT22;10808;48.010;11.326;2023-08-21T04:35:07;20.40;99.90
21298;DHT22;10808;48.010;11.326;2023-08-21T04:37:34;20.40;99.90
21298;DHT22;10808;48.010;11.326;2023-08-21T04:40:00;20.40;99.90
21298;DHT22;10808;48.010;11.326;2023-08-21T04:42:26;20.40;99.90
21298;DHT22;10808;48.010;11.326;2023-08-21T04:44:52;20.40;99.90
21298;DHT22;10808;48.010;11.326;2023-08-21T04:47:26;20.30;99.90
21298;DHT22;10808;48.010;11.326;2023-08-21T04:49:53;20.40;99.90
21298;DHT22;10808;48.010;11.326;2023-08-21T04:52:20;20.30;99.90
21298;DHT22;10808;48.010;11.326;2023-08-21T04:54:47;20.30;99.90
21298;DHT22;10808;48.010;11.326;2023-08-21T04:57:14;20.30;99.90
21298;DHT22;10808;48.010;11.326;2023-08-21T04:59:41;20.40;99.90
21298;DHT22;10808;48.010;11.326;2023-08-21T05:02:07;20.40;99.90
21298;DHT22;10808;48.010;11.326;2023-08-21T05:04:35;20.50;99.90
21298;DHT22;10808;48.010;11.326;2023-08-21T05:07:01;20.50;99.90
21298;DHT22;10808;48.010;11.326;2023-08-21T05:09:27;20.50;99.90
21298;DHT22;10808;48.010;11.326;2023-08-21T05:11:54;20.60;99.90
21298;DHT22;10808;48.010;11.326;2023-08-21T05:14:20;20.60;99.90
21298;DHT22;10808;48.010;11.326;2023-08-21T05:16:46;20.60;99.90
21298;DHT22;10808;48.010;11.326;2023-08-21T05:19:12;20.70;99.90
21298;DHT22;10808;48.010;11.326;2023-08-21T05:21:38;20.70;99.90
21298;DHT22;10808;48.010;11.326;2023-08-21T05:24:04;20.80;99.90
21298;DHT22;10808;48.010;11.326;2023-08-21T05:26:30;20.90;99.90
21298;DHT22;10808;48.010;11.326;2023-08-21T05:28:57;20.90;99.90
21298;DHT22;10808;48.010;11.326;2023-08-21T05:31:23;21.00;99.90
21298;DHT22;10808;48.010;11.326;2023-08-21T05:33:49;21.20;99.90
21298;DHT22;10808;48.010;11.326;2023-08-21T05:36:15;21.20;99.90
21298;DHT22;10808;48.010;11.326;2023-08-21T05:38:41;21.40;99.90
21298;DHT22;10808;48.010;11.326;2023-08-21T05:41:07;21.50;99.90
21298;DHT22;10808;48.010;11.326;2023-08-21T05:43:33;21.60;99.90
21298;DHT22;10808;48.010;11.326;2023-08-21T05:46:00;21.70;99.90
21298;DHT22;10808;48.010;11.326;2023-08-21T05:48:26;21.80;99.90
21298;DHT22;10808;48.010;11.326;2023-08-21T05:50:52;21.90;99.90
21298;DHT22;10808;48.010;11.326;2023-08-21T05:53:19;22.00;99.90
21298;DHT22;10808;48.010;11.326;2023-08-21T05:55:45;22.10;99.90
21298;DHT22;10808;48.010;11.326;2023-08-21T05:58:11;22.20;99.90
21298;DHT22;10808;48.010;11.326;2023-08-21T06:00:38;22.30;99.90
21298;DHT22;10808;48.010;11.326;2023-08-21T06:03:05;22.50;99.90
21298;DHT22;10808;48.010;11.326;2023-08-21T06:05:31;22.60;99.90
21298;DHT22;10808;48.010;11.326;2023-08-21T06:07:57;22.80;99.90
21298;DHT22;10808;48.010;11.326;2023-08-21T06:10:23;22.90;99.90
21298;DHT22;10808;48.010;11.326;2023-08-21T06:12:49;23.10;99.90
21298;DHT22;10808;48.010;11.326;2023-08-21T06:15:17;23.30;99.90
21298;DHT22;10808;48.010;11.326;2023-08-21T06:17:43;23.50;99.90
21298;DHT22;10808;48.010;11.326;2023-08-21T06:20:09;23.70;99.90
21298;DHT22;10808;48.010;11.326;2023-08-21T06:22:35;23.90;99.90
21298;DHT22;10808;48.010;11.326;2023-08-21T06:25:02;24.10;99.90
21298;DHT22;10808;48.010;11.326;2023-08-21T06:27:28;24.20;99.90
21298;DHT22;10808;48.010;11.326;2023-08-21T06:29:54;24.50;99.90
21298;DHT22;10808;48.010;11.326;2023-08-21T06:32:20;24.60;99.90
21298;DHT22;10808;48.010;11.326;2023-08-21T06:34:46;24.80;99.90
21298;DHT22;10808;48.010;11.326;2023-08-21T06:37:12;25.00;99.90
21298;DHT22;10808;48.010;11.326;2023-08-21T06:39:41;25.20;99.90
21298;DHT22;10808;48.010;11.326;2023-08-21T06:42:07;25.50;99.90
21298;DHT22;10808;48.010;11.326;2023-08-21T06:44:33;25.70;99.90
21298;DHT22;10808;48.010;11.326;2023-08-21T06:46:59;25.90;99.90
21298;DHT22;10808;48.010;11.326;2023-08-21T06:49:25;26.00;99.90
21298;DHT22;10808;48.010;11.326;2023-08-21T06:51:51;26.10;99.90
21298;DHT22;10808;48.010;11.326;2023-08-21T06:54:17;26.20;99.90
21298;DHT22;10808;48.010;11.326;2023-08-21T06:56:44;26.30;99.90
21298;DHT22;10808;48.010;11.326;2023-08-21T06:59:10;26.50;99.90
21298;DHT22;10808;48.010;11.326;2023-08-21T07:01:36;26.60;99.90
21298;DHT22;10808;48.010;11.326;2023-08-21T07:04:02;26.80;99.90
21298;DHT22;10808;48.010;11.326;2023-08-21T07:06:28;26.90;99.90
21298;DHT22;10808;48.010;11.326;2023-08-21T07:08:55;27.10;99.90
21298;DHT22;10808;48.010;11.326;2023-08-21T07:11:21;27.30;99.90
21298;DHT22;10808;48.010;11.326;2023-08-21T07:13:47;27.50;99.90
21298;DHT22;10808;48.010;11.326;2023-08-21T07:16:13;27.70;99.90
21298;DHT22;10808;48.010;11.326;2023-08-21T07:18:39;27.80;99.90
21298;DHT22;10808;48.010;11.326;2023-08-21T07:21:05;27.90;99.40
21298;DHT22;10808;48.010;11.326;2023-08-21T07:23:31;28.30;99.40
21298;DHT22;10808;48.010;11.326;2023-08-21T07:25:58;28.70;98.80
21298;DHT22;10808;48.010;11.326;2023-08-21T07:28:24;29.00;98.60
21298;DHT22;10808;48.010;11.326;2023-08-21T07:30:57;29.30;97.20
21298;DHT22;10808;48.010;11.326;2023-08-21T07:33:25;29.50;97.20
21298;DHT22;10808;48.010;11.326;2023-08-21T07:36:04;29.80;97.20
21298;DHT22;10808;48.010;11.326;2023-08-21T07:38:31;30.00;96.10
21298;DHT22;10808;48.010;11.326;2023-08-21T07:41:09;30.50;96.90
21298;DHT22;10808;48.010;11.326;2023-08-21T07:43:43;30.80;95.20
21298;DHT22;10808;48.010;11.326;2023-08-21T07:46:11;30.90;94.70
21298;DHT22;10808;48.010;11.326;2023-08-21T07:48:39;30.90;94.80
21298;DHT22;10808;48.010;11.326;2023-08-21T07:51:05;31.20;94.50
21298;DHT22;10808;48.010;11.326;2023-08-21T07:53:31;31.40;93.80
21298;DHT22;10808;48.010;11.326;2023-08-21T07:56:04;31.40;93.90
21298;DHT22;10808;48.010;11.326;2023-08-21T07:58:31;31.60;93.20
21298;DHT22;10808;48.010;11.326;2023-08-21T08:01:00;32.00;92.70
21298;DHT22;10808;48.010;11.326;2023-08-21T08:03:30;32.20;92.20
21298;DHT22;10808;48.010;11.326;2023-08-21T08:05:57;32.20;91.90
21298;DHT22;10808;48.010;11.326;2023-08-21T08:08:23;32.10;91.50
21298;DHT22;10808;48.010;11.326;2023-08-21T08:10:49;32.60;92.20
21298;DHT22;10808;48.010;11.326;2023-08-21T08:13:16;32.80;90.20
21298;DHT22;10808;48.010;11.326;2023-08-21T08:15:42;32.60;91.20
21298;DHT22;10808;48.010;11.326;2023-08-21T08:18:11;32.80;90.30
21298;DHT22;10808;48.010;11.326;2023-08-21T08:20:38;32.80;90.20
21298;DHT22;10808;48.010;11.326;2023-08-21T08:23:04;32.80;89.60
21298;DHT22;10808;48.010;11.326;2023-08-21T08:25:30;32.90;90.40
21298;DHT22;10808;48.010;11.326;2023-08-21T08:27:56;33.40;89.40
21298;DHT22;10808;48.010;11.326;2023-08-21T08:30:22;34.00;90.00
21298;DHT22;10808;48.010;11.326;2023-08-21T08:32:49;34.50;86.80
21298;DHT22;10808;48.010;11.326;2023-08-21T08:35:15;34.70;85.80
21298;DHT22;10808;48.010;11.326;2023-08-21T08:37:42;35.20;85.50
21298;DHT22;10808;48.010;11.326;2023-08-21T08:40:09;35.30;82.20
21298;DHT22;10808;48.010;11.326;2023-08-21T08:42:35;35.40;80.80
21298;DHT22;10808;48.010;11.326;2023-08-21T08:45:03;35.70;79.80
21298;DHT22;10808;48.010;11.326;2023-08-21T08:47:33;36.00;81.00
21298;DHT22;10808;48.010;11.326;2023-08-21T08:50:05;36.40;77.10
21298;DHT22;10808;48.010;11.326;2023-08-21T08:52:36;36.00;74.70
21298;DHT22;10808;48.010;11.326;2023-08-21T08:55:02;36.20;76.40
21298;DHT22;10808;48.010;11.326;2023-08-21T08:57:30;36.70;77.30
21298;DHT22;10808;48.010;11.326;2023-08-21T08:59:56;36.80;73.30
21298;DHT22;10808;48.010;11.326;2023-08-21T09:02:26;37.00;72.50
21298;DHT22;10808;48.010;11.326;2023-08-21T09:04:53;37.40;74.00
21298;DHT22;10808;48.010;11.326;2023-08-21T09:07:19;37.50;71.00
21298;DHT22;10808;48.010;11.326;2023-08-21T09:09:47;37.50;69.70
21298;DHT22;10808;48.010;11.326;2023-08-21T09:12:17;37.30;67.50
21298;DHT22;10808;48.010;11.326;2023-08-21T09:14:44;37.20;69.50
21298;DHT22;10808;48.010;11.326;2023-08-21T09:17:11;37.40;69.30
21298;DHT22;10808;48.010;11.326;2023-08-21T09:19:37;37.30;67.50
21298;DHT22;10808;48.010;11.326;2023-08-21T09:22:15;37.40;71.10
21298;DHT22;10808;48.010;11.326;2023-08-21T09:25:00;38.20;69.50
21298;DHT22;10808;48.010;11.326;2023-08-21T09:27:30;38.80;66.00
21298;DHT22;10808;48.010;11.326;2023-08-21T09:29:57;38.90;66.00
21298;DHT22;10808;48.010;11.326;2023-08-21T09:32:23;39.50;69.00
21298;DHT22;10808;48.010;11.326;2023-08-21T09:34:50;39.70;63.00
21298;DHT22;10808;48.010;11.326;2023-08-21T09:37:16;39.50;61.50
21298;DHT22;10808;48.010;11.326;2023-08-21T09:39:43;38.80;61.70
21298;DHT22;10808;48.010;11.326;2023-08-21T09:42:10;38.50;62.30
21298;DHT22;10808;48.010;11.326;2023-08-21T09:44:39;38.30;62.30
21298;DHT22;10808;48.010;11.326;2023-08-21T09:47:10;37.90;64.50
21298;DHT22;10808;48.010;11.326;2023-08-21T09:49:38;38.00;63.80
21298;DHT22;10808;48.010;11.326;2023-08-21T09:52:09;37.90;65.50
21298;DHT22;10808;48.010;11.326;2023-08-21T09:54:42;38.40;66.10
21298;DHT22;10808;48.010;11.326;2023-08-21T09:57:08;39.00;66.80
21298;DHT22;10808;48.010;11.326;2023-08-21T09:59:36;39.50;67.50
21298;DHT22;10808;48.010;11.326;2023-08-21T10:02:04;40.00;67.10
21298;DHT22;10808;48.010;11.326;2023-08-21T10:04:32;40.40;67.80
21298;DHT22;10808;48.010;11.326;2023-08-21T10:07:02;41.10;63.90
21298;DHT22;10808;48.010;11.326;2023-08-21T10:09:31;41.20;62.30
21298;DHT22;10808;48.010;11.326;2023-08-21T10:11:57;41.50;62.40
21298;DHT22;10808;48.010;11.326;2023-08-21T10:14:23;41.60;60.60
21298;DHT22;10808;48.010;11.326;2023-08-21T10:16:53;41.80;61.00
21298;DHT22;10808;48.010;11.326;2023-08-21T10:19:20;42.00;57.90
21298;DHT22;10808;48.010;11.326;2023-08-21T10:21:49;41.70;57.40
21298;DHT22;10808;48.010;11.326;2023-08-21T10:24:47;41.60;59.00
21298;DHT22;10808;48.010;11.326;2023-08-21T10:27:13;42.20;59.90
21298;DHT22;10808;48.010;11.326;2023-08-21T10:29:39;42.60;57.50
21298;DHT22;10808;48.010;11.326;2023-08-21T10:32:05;42.80;57.60
21298;DHT22;10808;48.010;11.326;2023-08-21T10:34:36;43.10;57.00
21298;DHT22;10808;48.010;11.326;2023-08-21T10:37:10;43.40;56.40
21298;DHT22;10808;48.010;11.326;2023-08-21T10:39:40;43.00;53.80
21298;DHT22;10808;48.010;11.326;2023-08-21T10:42:18;43.00;56.20
21298;DHT22;10808;48.010;11.326;2023-08-21T10:47:18;43.20;55.10
21298;DHT22;10808;48.010;11.326;2023-08-21T10:49:50;43.60;54.00
21298;DHT22;10808;48.010;11.326;2023-08-21T10:54:51;43.30;52.90
21298;DHT22;10808;48.010;11.326;2023-08-21T10:57:18;42.90;52.40
21298;DHT22;10808;48.010;11.326;2023-08-21T10:59:54;43.00;53.30
21298;DHT22;10808;48.010;11.326;2023-08-21T11:02:21;42.80;53.10
21298;DHT22;10808;48.010;11.326;2023-08-21T11:04:48;42.80;54.30
21298;DHT22;10808;48.010;11.326;2023-08-21T11:07:14;43.20;53.80
21298;DHT22;10808;48.010;11.326;2023-08-21T11:09:40;43.20;54.00
21298;DHT22;10808;48.010;11.326;2023-08-21T11:12:14;43.60;54.50
21298;DHT22;10808;48.010;11.326;2023-08-21T11:14:40;43.90;54.70
21298;DHT22;10808;48.010;11.326;2023-08-21T11:17:08;44.10;53.30
21298;DHT22;10808;48.010;11.326;2023-08-21T11:19:34;44.10;53.10
21298;DHT22;10808;48.010;11.326;2023-08-21T11:22:00;43.80;52.50
21298;DHT22;10808;48.010;11.326;2023-08-21T11:24:49;43.40;52.30
21298;DHT22;10808;48.010;11.326;2023-08-21T11:27:18;43.30;54.70
21298;DHT22;10808;48.010;11.326;2023-08-21T11:29:46;43.50;53.70
21298;DHT22;10808;48.010;11.326;2023-08-21T11:34:56;43.80;51.90
21298;DHT22;10808;48.010;11.326;2023-08-21T11:37:26;43.80;54.10
21298;DHT22;10808;48.010;11.326;2023-08-21T11:39:54;44.10;54.40
21298;DHT22;10808;48.010;11.326;2023-08-21T11:42:29;44.40;53.60
21298;DHT22;10808;48.010;11.326;2023-08-21T11:44:56;44.20;52.50
21298;DHT22;10808;48.010;11.326;2023-08-21T11:47:23;44.10;52.30
21298;DHT22;10808;48.010;11.326;2023-08-21T11:49:50;44.20;54.10
21298;DHT22;10808;48.010;11.326;2023-08-21T11:52:19;44.70;53.70
21298;DHT22;10808;48.010;11.326;2023-08-21T11:54:50;45.10;52.80
21298;DHT22;10808;48.010;11.326;2023-08-21T11:57:18;45.30;51.70
21298;DHT22;10808;48.010;11.326;2023-08-21T11:59:55;45.60;50.80
21298;DHT22;10808;48.010;11.326;2023-08-21T12:02:26;45.70;51.10
21298;DHT22;10808;48.010;11.326;2023-08-21T12:05:06;46.00;50.90
21298;DHT22;10808;48.010;11.326;2023-08-21T12:07:33;46.20;50.90
21298;DHT22;10808;48.010;11.326;2023-08-21T12:10:01;46.00;48.70
21298;DHT22;10808;48.010;11.326;2023-08-21T12:12:27;45.70;50.30
21298;DHT22;10808;48.010;11.326;2023-08-21T12:14:53;45.60;51.70
21298;DHT22;10808;48.010;11.326;2023-08-21T12:17:19;45.60;50.80
21298;DHT22;10808;48.010;11.326;2023-08-21T12:19:45;45.70;49.30
21298;DHT22;10808;48.010;11.326;2023-08-21T12:22:11;45.50;48.50
21298;DHT22;10808;48.010;11.326;2023-08-21T12:24:38;44.90;48.40
21298;DHT22;10808;48.010;11.326;2023-08-21T12:27:04;44.70;51.60
21298;DHT22;10808;48.010;11.326;2023-08-21T12:29:30;45.10;51.20
21298;DHT22;10808;48.010;11.326;2023-08-21T12:31:56;45.30;50.80
21298;DHT22;10808;48.010;11.326;2023-08-21T12:34:22;45.70;50.90
21298;DHT22;10808;48.010;11.326;2023-08-21T12:36:50;45.50;48.80
21298;DHT22;10808;48.010;11.326;2023-08-21T12:39:16;45.40;48.80
21298;DHT22;10808;48.010;11.326;2023-08-21T12:41:43;45.40;49.60
21298;DHT22;10808;48.010;11.326;2023-08-21T12:44:09;45.40;50.60
21298;DHT22;10808;48.010;11.326;2023-08-21T12:46:36;45.50;49.60
21298;DHT22;10808;48.010;11.326;2023-08-21T12:49:02;45.60;50.00
21298;DHT22;10808;48.010;11.326;2023-08-21T12:51:28;45.40;49.70
21298;DHT22;10808;48.010;11.326;2023-08-21T12:53:55;45.60;51.10
21298;DHT22;10808;48.010;11.326;2023-08-21T12:56:21;45.90;49.80
21298;DHT22;10808;48.010;11.326;2023-08-21T12:58:47;46.10;49.50
21298;DHT22;10808;48.010;11.326;2023-08-21T13:01:13;46.30;48.10
21298;DHT22;10808;48.010;11.326;2023-08-21T13:03:46;45.20;46.90
21298;DHT22;10808;48.010;11.326;2023-08-21T13:06:13;44.90;49.30
21298;DHT22;10808;48.010;11.326;2023-08-21T13:08:40;45.20;49.40
21298;DHT22;10808;48.010;11.326;2023-08-21T13:11:06;45.50;49.20
21298;DHT22;10808;48.010;11.326;2023-08-21T13:13:33;45.80;50.00
21298;DHT22;10808;48.010;11.326;2023-08-21T13:15:59;46.10;49.70
21298;DHT22;10808;48.010;11.326;2023-08-21T13:18:26;46.00;48.50
21298;DHT22;10808;48.010;11.326;2023-08-21T13:20:52;46.00;47.80
21298;DHT22;10808;48.010;11.326;2023-08-21T13:23:18;45.50;47.60
21298;DHT22;10808;48.010;11.326;2023-08-21T13:25:45;45.30;47.40
21298;DHT22;10808;48.010;11.326;2023-08-21T13:28:11;45.40;48.50
21298;DHT22;10808;48.010;11.326;2023-08-21T13:30:37;45.50;48.30
21298;DHT22;10808;48.010;11.326;2023-08-21T13:33:04;45.70;47.70
21298;DHT22;10808;48.010;11.326;2023-08-21T13:35:30;46.00;49.30
21298;DHT22;10808;48.010;11.326;2023-08-21T13:37:57;46.30;49.00
21298;DHT22;10808;48.010;11.326;2023-08-21T13:40:24;46.50;48.20
21298;DHT22;10808;48.010;11.326;2023-08-21T13:42:50;46.40;47.40
21298;DHT22;10808;48.010;11.326;2023-08-21T13:45:18;46.50;48.20
21298;DHT22;10808;48.010;11.326;2023-08-21T13:47:46;46.60;48.90
21298;DHT22;10808;48.010;11.326;2023-08-21T13:50:13;46.80;47.00
21298;DHT22;10808;48.010;11.326;2023-08-21T13:52:41;46.80;48.30
21298;DHT22;10808;48.010;11.326;2023-08-21T13:55:08;46.90;47.40
21298;DHT22;10808;48.010;11.326;2023-08-21T13:57:35;46.90;46.80
21298;DHT22;10808;48.010;11.326;2023-08-21T14:00:03;46.90;47.30
21298;DHT22;10808;48.010;11.326;2023-08-21T14:02:38;46.70;46.80
21298;DHT22;10808;48.010;11.326;2023-08-21T14:05:05;46.60;47.90
21298;DHT22;10808;48.010;11.326;2023-08-21T14:07:32;46.60;48.20
21298;DHT22;10808;48.010;11.326;2023-08-21T14:09:58;46.70;47.50
21298;DHT22;10808;48.010;11.326;2023-08-21T14:12:24;46.70;46.70
21298;DHT22;10808;48.010;11.326;2023-08-21T14:14:50;46.50;46.30
21298;DHT22;10808;48.010;11.326;2023-08-21T14:17:16;46.40;47.50
21298;DHT22;10808;48.010;11.326;2023-08-21T14:19:43;46.30;47.60
21298;DHT22;10808;48.010;11.326;2023-08-21T14:22:09;46.00;47.80
21298;DHT22;10808;48.010;11.326;2023-08-21T14:24:35;46.10;47.90
21298;DHT22;10808;48.010;11.326;2023-08-21T14:27:01;46.00;47.90
21298;DHT22;10808;48.010;11.326;2023-08-21T14:29:27;45.60;48.10
21298;DHT22;10808;48.010;11.326;2023-08-21T14:31:53;45.70;48.50
21298;DHT22;10808;48.010;11.326;2023-08-21T14:34:20;45.80;48.50
21298;DHT22;10808;48.010;11.326;2023-08-21T14:36:47;45.90;47.80
21298;DHT22;10808;48.010;11.326;2023-08-21T14:39:14;46.00;48.70
21298;DHT22;10808;48.010;11.326;2023-08-21T14:41:42;45.80;47.70
21298;DHT22;10808;48.010;11.326;2023-08-21T14:44:08;45.40;47.90
21298;DHT22;10808;48.010;11.326;2023-08-21T14:46:34;45.10;48.40
21298;DHT22;10808;48.010;11.326;2023-08-21T14:49:00;44.80;48.00
21298;DHT22;10808;48.010;11.326;2023-08-21T14:51:27;44.50;47.30
21298;DHT22;10808;48.010;11.326;2023-08-21T14:53:54;44.00;49.10
21298;DHT22;10808;48.010;11.326;2023-08-21T14:56:20;43.70;47.90
21298;DHT22;10808;48.010;11.326;2023-08-21T14:58:47;43.50;48.30
21298;DHT22;10808;48.010;11.326;2023-08-21T15:01:14;43.40;48.40
21298;DHT22;10808;48.010;11.326;2023-08-21T15:03:41;43.50;49.00
21298;DHT22;10808;48.010;11.326;2023-08-21T15:06:07;43.70;50.00
21298;DHT22;10808;48.010;11.326;2023-08-21T15:08:33;43.60;48.10
21298;DHT22;10808;48.010;11.326;2023-08-21T15:11:00;43.50;49.30
21298;DHT22;10808;48.010;11.326;2023-08-21T15:13:26;43.70;51.40
21298;DHT22;10808;48.010;11.326;2023-08-21T15:15:52;43.70;49.70
21298;DHT22;10808;48.010;11.326;2023-08-21T15:18:18;43.70;49.90
21298;DHT22;10808;48.010;11.326;2023-08-21T15:20:45;43.70;50.50
21298;DHT22;10808;48.010;11.326;2023-08-21T15:23:11;43.70;49.80
21298;DHT22;10808;48.010;11.326;2023-08-21T15:25:37;43.30;49.30
21298;DHT22;10808;48.010;11.326;2023-08-21T15:28:03;42.80;49.70